Time,TemperatureF,DewpointF,PressureIn,WindDirection,WindDirectionDegrees,WindSpeedMPH,WindSpeedGustMPH,Humidity,HourlyPrecipIn,Conditions,Clouds,dailyrainin,SolarRadiationWatts/m^2,SoftwareType,DateUTC
2013-06-03 00:02:00,49.6,45.9,29.97,NW,313,0.0,0.0,87,0.00,,CLR,0.00,0.00,VWS V14.01,2013-06-03 05:02:00,
2013-06-03 00:07:00,49.5,46.1,29.97,NW,313,0.0,0.0,88,0.00,,CLR,0.00,0.00,VWS V14.01,2013-06-03 05:07:00,
2013-06-03 00:12:00,49.6,46.2,29.98,NW,313,0.0,0.0,88,0.00,,CLR,0.00,0.00,VWS V14.01,2013-06-03 05:12:00,
2013-06-03 00:17:00,49.7,46.6,29.98,NW,313,0.0,0.0,89,0.00,,CLR,0.00,0.00,VWS V14.01,2013-06-03 05:17:00,
2013-06-03 00:22:00,49.7,46.6,29.98,NW,313,0.0,0.0,89,0.00,,CLR,0.00,0.00,VWS V14.01,2013-06-03 05:22:00,
2013-06-03 00:27:00,49.7,46.6,29.98,NW,313,0.0,0.0,89,0.00,,CLR,0.00,0.00,VWS V14.01,2013-06-03 05:27:00,
2013-06-03 00:32:00,49.5,46.4,29.98,NW,313,0.0,0.0,89,0.00,,CLR,0.00,0.00,VWS V14.01,2013-06-03 05:32:00,
2013-06-03 00:37:00,49.4,46.0,29.98,NW,313,0.0,0.0,88,0.00,,CLR,0.00,0.00,VWS V14.01,2013-06-03 05:37:00,
2013-06-03 00:42:00,49.4,46.0,29.98,NW,313,0.0,0.0,88,0.00,,CLR,0.00,0.00,VWS V14.01,2013-06-03 05:42:00,
2013-06-03 00:47:00,49.2,45.8,29.98,NW,313,0.0,0.0,88,0.00,,CLR,0.00,0.00,VWS V14.01,2013-06-03 05:47:00,
2013-06-03 00:52:00,49.3,45.9,29.98,NW,312,0.0,0.0,88,0.00,,CLR,0.00,0.00,VWS V14.01,2013-06-03 05:52:00,
2013-06-03 00:57:00,49.3,45.9,29.98,NW,313,0.0,0.0,88,0.00,,CLR,0.00,0.00,VWS V14.01,2013-06-03 05:57:00,
2013-06-03 01:02:00,49.3,45.6,29.97,NW,313,0.0,0.0,87,0.00,,CLR,0.00,0.00,VWS V14.01,2013-06-03 06:02:00,
2013-06-03 01:07:00,49.2,45.5,29.97,NW,313,0.0,0.0,87,0.00,,CLR,0.00,0.00,VWS V14.01,2013-06-03 06:07:00,
2013-06-03 01:12:00,49.0,45.6,29.97,NW,313,0.0,0.0,88,0.00,,CLR,0.00,0.00,VWS V14.01,2013-06-03 06:12:00,
2013-06-03 01:17:00,48.8,45.4,29.97,NW,313,0.0,0.0,88,0.00,,CLR,0.00,0.00,VWS V14.01,2013-06-03 06:17:00,
2013-06-03 01:22:00,48.4,45.0,29.97,NW,313,0.0,0.0,88,0.00,,CLR,0.00,0.00,VWS V14.01,2013-06-03 06:22:00,
2013-06-03 01:27:00,48.1,44.7,29.97,NW,313,0.0,0.0,88,0.00,,CLR,0.00,0.00,VWS V14.01,2013-06-03 06:27:00,
2013-06-03 01:32:00,47.8,44.4,29.97,NW,313,0.0,0.0,88,0.00,,CLR,0.00,0.00,VWS V14.01,2013-06-03 06:32:00,
2013-06-03 01:37:00,47.5,44.1,29.97,NW,313,0.0,0.0,88,0.00,,CLR,0.00,0.00,VWS V14.01,2013-06-03 06:37:00,
2013-06-03 01:42:00,47.6,44.5,29.97,NW,313,0.0,0.0,89,0.00,,CLR,0.00,0.00,VWS V14.01,2013-06-03 06:42:00,
2013-06-03 01:47:00,47.4,44.3,29.97,NW,313,0.0,0.0,89,0.00,,CLR,0.00,0.00,VWS V14.01,2013-06-03 06:47:00,
2013-06-03 01:52:00,47.3,44.2,29.97,NW,313,0.0,0.0,89,0.00,,CLR,0.00,0.00,VWS V14.01,2013-06-03 06:52:00,
2013-06-03 01:57:00,47.2,44.1,29.97,NW,313,0.0,0.0,89,0.00,,CLR,0.00,0.00,VWS V14.01,2013-06-03 06:57:00,
2013-06-03 02:02:00,47.2,44.4,29.97,NW,313,0.0,0.0,90,0.00,,CLR,0.00,0.00,VWS V14.01,2013-06-03 07:02:00,
2013-06-03 02:07:00,47.5,44.7,29.97,NW,313,0.0,1.0,90,0.00,,CLR,0.00,0.00,VWS V14.01,2013-06-03 07:07:00,
2013-06-03 02:12:00,47.7,44.6,29.97,NW,313,0.0,1.0,89,0.00,,CLR,0.00,0.00,VWS V14.01,2013-06-03 07:12:00,
2013-06-03 02:17:00,47.5,44.1,29.97,NW,313,0.0,1.0,88,0.00,,CLR,0.00,0.00,VWS V14.01,2013-06-03 07:17:00,
2013-06-03 02:22:00,47.5,44.4,29.97,NW,313,0.0,1.0,89,0.00,,CLR,0.00,0.00,VWS V14.01,2013-06-03 07:22:00,
2013-06-03 02:27:00,47.6,44.5,29.97,NW,313,0.0,1.0,89,0.00,,CLR,0.00,0.00,VWS V14.01,2013-06-03 07:27:00,
2013-06-03 02:32:00,47.5,44.4,29.97,NW,313,0.0,0.0,89,0.00,,CLR,0.00,0.00,VWS V14.01,2013-06-03 07:32:00,
2013-06-03 02:37:00,47.2,44.1,29.97,NW,313,0.0,0.0,89,0.00,,CLR,0.00,0.00,VWS V14.01,2013-06-03 07:37:00,
2013-06-03 02:42:00,47.0,43.9,29.97,NW,313,0.0,0.0,89,0.00,,CLR,0.00,0.00,VWS V14.01,2013-06-03 07:42:00,
2013-06-03 02:47:00,46.8,43.7,29.97,NW,313,0.0,0.0,89,0.00,,CLR,0.00,0.00,VWS V14.01,2013-06-03 07:47:00,
2013-06-03 02:52:00,46.3,43.0,29.97,NW,313,0.0,0.0,88,0.00,,CLR,0.00,0.00,VWS V14.01,2013-06-03 07:52:00,
2013-06-03 02:57:00,45.7,42.7,29.97,NW,313,0.0,1.0,89,0.00,,CLR,0.00,0.00,VWS V14.01,2013-06-03 07:57:00,
2013-06-03 03:02:00,45.4,42.6,29.97,NW,313,0.0,0.0,90,0.00,,CLR,0.00,0.00,VWS V14.01,2013-06-03 08:02:00,
2013-06-03 03:07:00,45.7,42.9,29.97,NW,313,0.0,0.0,90,0.00,,CLR,0.00,0.00,VWS V14.01,2013-06-03 08:07:00,
2013-06-03 03:12:00,46.0,43.2,29.97,NW,313,0.0,0.0,90,0.00,,CLR,0.00,0.00,VWS V14.01,2013-06-03 08:12:00,
2013-06-03 03:17:00,45.6,42.8,29.98,NW,313,0.0,0.0,90,0.00,,CLR,0.00,0.00,VWS V14.01,2013-06-03 08:17:00,
2013-06-03 03:22:00,45.2,42.5,29.98,NW,313,0.0,0.0,90,0.00,,CLR,0.00,0.00,VWS V14.01,2013-06-03 08:22:00,
2013-06-03 03:28:00,44.9,42.2,29.97,NW,313,0.0,0.0,90,0.00,,CLR,0.00,0.00,VWS V14.01,2013-06-03 08:28:00,
2013-06-03 03:33:00,44.7,42.0,29.97,NW,313,0.0,0.0,90,0.00,,CLR,0.00,0.00,VWS V14.01,2013-06-03 08:33:00,
2013-06-03 03:38:00,44.7,42.0,29.97,NW,313,0.0,0.0,90,0.00,,CLR,0.00,0.00,VWS V14.01,2013-06-03 08:38:00,
2013-06-03 03:43:00,44.8,42.0,29.98,NW,313,0.0,0.0,90,0.00,,CLR,0.00,0.00,VWS V14.01,2013-06-03 08:43:00,
2013-06-03 03:48:00,44.8,42.0,29.97,NW,312,0.0,0.0,90,0.00,,CLR,0.00,0.00,VWS V14.01,2013-06-03 08:48:00,
2013-06-03 03:53:00,44.8,42.0,29.98,NW,313,0.0,0.0,90,0.00,,CLR,0.00,0.00,VWS V14.01,2013-06-03 08:53:00,
2013-06-03 03:58:00,44.6,41.8,29.98,NW,313,0.0,0.0,90,0.00,,CLR,0.00,0.00,VWS V14.01,2013-06-03 08:58:00,
2013-06-03 04:03:00,44.9,42.2,29.98,NW,313,0.0,1.0,90,0.00,,CLR,0.00,0.00,VWS V14.01,2013-06-03 09:03:00,
2013-06-03 04:08:00,45.1,42.3,29.98,NW,313,0.0,1.0,90,0.00,,CLR,0.00,0.00,VWS V14.01,2013-06-03 09:08:00,
2013-06-03 04:13:00,45.1,42.3,29.98,NW,313,0.0,1.0,90,0.00,,CLR,0.00,0.00,VWS V14.01,2013-06-03 09:13:00,
2013-06-03 04:18:00,45.1,42.3,29.98,NW,313,0.0,1.0,90,0.00,,CLR,0.00,0.00,VWS V14.01,2013-06-03 09:18:00,
2013-06-03 04:23:00,45.0,42.2,29.98,NW,313,0.0,1.0,90,0.00,,CLR,0.00,0.00,VWS V14.01,2013-06-03 09:23:00,
2013-06-03 04:28:00,45.0,42.2,29.98,NW,313,0.0,1.0,90,0.00,,CLR,0.00,0.00,VWS V14.01,2013-06-03 09:28:00,
2013-06-03 04:33:00,45.2,42.5,29.98,NW,313,0.0,0.0,90,0.00,,CLR,0.00,0.00,VWS V14.01,2013-06-03 09:33:00,
2013-06-03 04:38:00,45.4,42.6,29.98,NW,313,0.0,0.0,90,0.00,,CLR,0.00,0.00,VWS V14.01,2013-06-03 09:38:00,
2013-06-03 04:43:00,45.3,42.5,29.98,NW,313,0.0,0.0,90,0.00,,CLR,0.00,0.00,VWS V14.01,2013-06-03 09:43:00,
2013-06-03 04:48:00,45.1,42.3,29.98,NW,313,0.0,0.0,90,0.00,,CLR,0.00,0.00,VWS V14.01,2013-06-03 09:48:00,
2013-06-03 04:53:00,44.9,42.2,29.98,NW,313,0.0,0.0,90,0.00,,CLR,0.00,0.00,VWS V14.01,2013-06-03 09:53:00,
2013-06-03 04:58:00,44.6,41.8,29.98,NW,313,0.0,0.0,90,0.00,,CLR,0.00,0.00,VWS V14.01,2013-06-03 09:58:00,
2013-06-03 05:03:00,44.5,41.8,29.98,NW,313,0.0,0.0,90,0.00,,CLR,0.00,0.00,VWS V14.01,2013-06-03 10:03:00,
2013-06-03 05:08:00,44.2,41.5,29.98,NW,313,0.0,0.0,90,0.00,,CLR,0.00,0.00,VWS V14.01,2013-06-03 10:08:00,
2013-06-03 05:13:00,43.9,41.5,29.98,NW,313,0.0,0.0,91,0.00,,CLR,0.00,0.00,VWS V14.01,2013-06-03 10:13:00,
2013-06-03 05:18:00,43.8,41.3,29.99,NW,313,0.0,0.0,91,0.00,,CLR,0.00,0.00,VWS V14.01,2013-06-03 10:18:00,
2013-06-03 05:23:00,43.7,41.0,29.99,NW,313,0.0,0.0,90,0.00,,CLR,0.00,0.00,VWS V14.01,2013-06-03 10:23:00,
2013-06-03 05:28:00,43.5,40.8,29.99,NW,313,0.0,0.0,90,0.00,,CLR,0.00,5.00,VWS V14.01,2013-06-03 10:28:00,
2013-06-03 05:33:00,43.5,40.8,29.99,NW,312,0.0,0.0,90,0.00,,CLR,0.00,5.00,VWS V14.01,2013-06-03 10:33:00,
2013-06-03 05:38:00,43.5,40.8,29.99,NW,313,0.0,0.0,90,0.00,,CLR,0.00,7.00,VWS V14.01,2013-06-03 10:38:00,
2013-06-03 05:43:00,43.5,40.8,29.99,NW,313,0.0,0.0,90,0.00,,CLR,0.00,9.00,VWS V14.01,2013-06-03 10:43:00,
2013-06-03 05:48:00,43.5,40.8,29.99,NW,313,0.0,0.0,90,0.00,,CLR,0.00,11.00,VWS V14.01,2013-06-03 10:48:00,
2013-06-03 05:53:00,43.5,40.8,29.99,NW,312,0.0,0.0,90,0.00,,CLR,0.00,11.00,VWS V14.01,2013-06-03 10:53:00,
2013-06-03 05:58:00,43.5,40.8,30.00,NW,313,0.0,0.0,90,0.00,,CLR,0.00,12.00,VWS V14.01,2013-06-03 10:58:00,
2013-06-03 06:03:00,43.6,40.9,30.00,NW,313,0.0,0.0,90,0.00,,CLR,0.00,14.00,VWS V14.01,2013-06-03 11:03:00,
2013-06-03 06:08:00,43.5,40.8,30.00,NW,313,0.0,0.0,90,0.00,,CLR,0.00,14.00,VWS V14.01,2013-06-03 11:08:00,
2013-06-03 06:13:00,43.2,40.8,30.00,NW,313,0.0,0.0,91,0.00,,CLR,0.00,16.00,VWS V14.01,2013-06-03 11:13:00,
2013-06-03 06:18:00,43.5,40.8,30.00,NW,313,0.0,0.0,90,0.00,,CLR,0.00,16.00,VWS V14.01,2013-06-03 11:18:00,
2013-06-03 06:23:00,43.5,40.8,30.00,NW,313,0.0,0.0,90,0.00,,SCT002,0.00,18.00,VWS V14.01,2013-06-03 11:23:00,
2013-06-03 06:28:00,43.9,41.2,30.00,NW,313,0.0,0.0,90,0.00,,SCT002,0.00,18.00,VWS V14.01,2013-06-03 11:28:00,
2013-06-03 06:33:00,44.0,41.3,30.00,NW,313,0.0,0.0,90,0.00,,SCT002,0.00,19.00,VWS V14.01,2013-06-03 11:33:00,
2013-06-03 06:38:00,44.4,41.7,30.01,NW,313,0.0,0.0,90,0.00,,SCT002,0.00,19.00,VWS V14.01,2013-06-03 11:38:00,
2013-06-03 06:43:00,44.7,41.7,30.01,NW,313,0.0,0.0,89,0.00,,SCT002,0.00,21.00,VWS V14.01,2013-06-03 11:43:00,
2013-06-03 06:48:00,45.0,42.0,30.01,NW,313,0.0,0.0,89,0.00,,SCT002,0.00,21.00,VWS V14.01,2013-06-03 11:48:00,
2013-06-03 06:53:00,45.2,42.2,30.01,NW,313,0.0,0.0,89,0.00,,SCT002,0.00,23.00,VWS V14.01,2013-06-03 11:53:00,
2013-06-03 06:58:00,45.5,42.5,30.01,NW,313,0.0,0.0,89,0.00,,SCT002,0.00,23.00,VWS V14.01,2013-06-03 11:58:00,
2013-06-03 07:03:00,45.8,42.8,30.01,NW,313,0.0,0.0,89,0.00,,CLR,0.00,25.00,VWS V14.01,2013-06-03 12:03:00,
2013-06-03 07:08:00,46.1,43.3,30.01,NW,313,0.0,0.0,90,0.00,,CLR,0.00,25.00,VWS V14.01,2013-06-03 12:08:00,
2013-06-03 07:13:00,46.4,43.6,30.01,NW,313,0.0,0.0,90,0.00,,CLR,0.00,26.00,VWS V14.01,2013-06-03 12:13:00,
2013-06-03 07:18:00,46.8,44.0,30.01,NW,313,0.0,0.0,90,0.00,,CLR,0.00,26.00,VWS V14.01,2013-06-03 12:18:00,
2013-06-03 07:23:00,47.3,44.2,30.01,NW,313,0.0,0.0,89,0.00,,CLR,0.00,28.00,VWS V14.01,2013-06-03 12:23:00,
2013-06-03 07:28:00,47.7,44.6,30.01,NW,313,1.0,1.0,89,0.00,,CLR,0.00,32.00,VWS V14.01,2013-06-03 12:28:00,
2013-06-03 07:33:00,48.2,45.4,30.01,WSW,254,2.0,3.0,90,0.00,,CLR,0.00,33.00,VWS V14.01,2013-06-03 12:33:00,
2013-06-03 07:38:00,48.5,46.0,30.01,WSW,254,0.0,3.0,91,0.00,,CLR,0.00,32.00,VWS V14.01,2013-06-03 12:38:00,
2013-06-03 07:43:00,49.1,46.0,30.01,WSW,239,2.0,3.0,89,0.00,,CLR,0.00,32.00,VWS V14.01,2013-06-03 12:43:00,
2013-06-03 07:49:00,49.7,46.0,30.01,WSW,240,2.0,3.0,87,0.00,,CLR,0.00,33.00,VWS V14.01,2013-06-03 12:49:00,
2013-06-03 07:54:00,50.2,46.2,30.01,WSW,240,0.0,3.0,86,0.00,,CLR,0.00,33.00,VWS V14.01,2013-06-03 12:54:00,
2013-06-03 07:59:00,50.6,46.6,30.01,WSW,240,0.0,3.0,86,0.00,,CLR,0.00,35.00,VWS V14.01,2013-06-03 12:59:00,
2013-06-03 08:04:00,51.0,46.7,30.02,WSW,240,1.0,2.0,85,0.00,,CLR,0.00,37.00,VWS V14.01,2013-06-03 13:04:00,
2013-06-03 08:09:00,51.5,47.2,30.02,WSW,240,1.0,3.0,85,0.00,,CLR,0.00,88.00,VWS V14.01,2013-06-03 13:09:00,
2013-06-03 08:14:00,52.0,47.0,30.01,WSW,240,0.0,3.0,83,0.00,,CLR,0.00,44.00,VWS V14.01,2013-06-03 13:14:00,
2013-06-03 08:19:00,52.5,47.8,30.02,WSW,242,1.0,3.0,84,0.00,,CLR,0.00,39.00,VWS V14.01,2013-06-03 13:19:00,
2013-06-03 08:24:00,52.9,47.2,30.02,WSW,245,1.0,3.0,81,0.00,,CLR,0.00,40.00,VWS V14.01,2013-06-03 13:24:00,
2013-06-03 08:29:00,53.3,48.0,30.02,WNW,297,1.0,5.0,82,0.00,,CLR,0.00,44.00,VWS V14.01,2013-06-03 13:29:00,
2013-06-03 08:34:00,53.6,47.6,30.02,West,274,2.0,3.0,80,0.00,,CLR,0.00,44.00,VWS V14.01,2013-06-03 13:34:00,
2013-06-03 08:39:00,54.1,49.4,30.02,West,278,4.0,4.0,84,0.00,,CLR,0.00,44.00,VWS V14.01,2013-06-03 13:39:00,
2013-06-03 08:44:00,54.3,48.3,30.02,NW,320,1.0,4.0,80,0.00,,CLR,0.00,46.00,VWS V14.01,2013-06-03 13:44:00,
2013-06-03 08:49:00,54.6,48.2,30.01,SW,226,3.0,5.0,79,0.00,,CLR,0.00,47.00,VWS V14.01,2013-06-03 13:49:00,
2013-06-03 08:54:00,55.0,48.6,30.02,SW,227,1.0,5.0,79,0.00,,CLR,0.00,47.00,VWS V14.01,2013-06-03 13:54:00,
2013-06-03 08:59:00,55.5,49.1,30.02,WSW,238,1.0,5.0,79,0.00,,CLR,0.00,359.00,VWS V14.01,2013-06-03 13:59:00,
2013-06-03 09:04:00,56.0,49.6,30.02,West,271,3.0,7.0,79,0.00,,CLR,0.00,195.00,VWS V14.01,2013-06-03 14:04:00,
2013-06-03 09:09:00,56.4,49.3,30.02,WSW,241,1.0,7.0,77,0.00,,CLR,0.00,587.00,VWS V14.01,2013-06-03 14:09:00,
2013-06-03 09:14:00,57.0,50.2,30.02,WNW,286,2.0,7.0,78,0.00,,CLR,0.00,617.00,VWS V14.01,2013-06-03 14:14:00,
2013-06-03 09:19:00,57.8,49.9,30.02,WNW,292,0.0,7.0,75,0.00,,CLR,0.00,635.00,VWS V14.01,2013-06-03 14:19:00,
2013-06-03 09:24:00,58.3,49.0,30.02,WNW,288,6.0,7.0,71,0.00,,CLR,0.00,650.00,VWS V14.01,2013-06-03 14:24:00,
2013-06-03 09:29:00,58.8,49.0,30.02,WNW,290,3.0,7.0,70,0.00,,CLR,0.00,664.00,VWS V14.01,2013-06-03 14:29:00,
2013-06-03 09:34:00,59.2,48.3,30.02,NW,309,3.0,6.0,67,0.00,,CLR,0.00,679.00,VWS V14.01,2013-06-03 14:34:00,
2013-06-03 09:39:00,59.5,49.3,30.02,WNW,285,3.0,7.0,69,0.00,,CLR,0.00,694.00,VWS V14.01,2013-06-03 14:39:00,
2013-06-03 09:44:00,59.8,49.6,30.02,West,261,1.0,7.0,69,0.00,,CLR,0.00,705.00,VWS V14.01,2013-06-03 14:44:00,
2013-06-03 09:49:00,60.1,48.7,30.02,SSW,209,2.0,7.0,66,0.00,,CLR,0.00,717.00,VWS V14.01,2013-06-03 14:49:00,
2013-06-03 09:54:00,60.4,48.6,30.02,SW,227,0.0,7.0,65,0.00,,CLR,0.00,729.00,VWS V14.01,2013-06-03 14:54:00,
2013-06-03 09:59:00,60.9,49.9,30.02,West,272,3.0,7.0,67,0.00,,CLR,0.00,745.00,VWS V14.01,2013-06-03 14:59:00,
2013-06-03 10:04:00,61.2,48.9,30.02,West,264,0.0,5.0,64,0.00,,CLR,0.00,756.00,VWS V14.01,2013-06-03 15:04:00,
2013-06-03 10:09:00,61.6,48.9,30.01,West,265,3.0,5.0,63,0.00,,CLR,0.00,770.00,VWS V14.01,2013-06-03 15:09:00,
2013-06-03 10:14:00,62.0,49.3,30.01,NW,304,6.0,7.0,63,0.00,,CLR,0.00,784.00,VWS V14.01,2013-06-03 15:14:00,
2013-06-03 10:19:00,62.3,48.7,30.01,WNW,298,1.0,7.0,61,0.00,,CLR,0.00,796.00,VWS V14.01,2013-06-03 15:19:00,
2013-06-03 10:24:00,62.8,47.8,30.01,NW,309,1.0,7.0,58,0.00,,CLR,0.00,803.00,VWS V14.01,2013-06-03 15:24:00,
2013-06-03 10:29:00,63.0,49.8,30.01,WNW,284,0.0,7.0,62,0.00,,CLR,0.00,800.00,VWS V14.01,2013-06-03 15:29:00,
2013-06-03 10:34:00,63.4,50.2,30.01,West,274,4.0,7.0,62,0.00,,CLR,0.00,809.00,VWS V14.01,2013-06-03 15:34:00,
2013-06-03 10:39:00,63.6,49.5,30.01,WNW,298,1.0,7.0,60,0.00,,CLR,0.00,840.00,VWS V14.01,2013-06-03 15:39:00,
2013-06-03 10:44:00,63.8,49.2,30.01,West,260,5.0,9.0,59,0.00,,CLR,0.00,826.00,VWS V14.01,2013-06-03 15:44:00,
2013-06-03 10:49:00,63.9,50.2,30.01,WSW,246,1.0,9.0,61,0.00,,CLR,0.00,867.00,VWS V14.01,2013-06-03 15:49:00,
2013-06-03 10:54:00,64.3,47.3,30.02,WSW,250,3.0,9.0,54,0.00,,CLR,0.00,896.00,VWS V14.01,2013-06-03 15:54:00,
2013-06-03 10:59:00,64.7,46.2,30.02,WSW,242,5.0,10.0,51,0.00,,CLR,0.00,926.00,VWS V14.01,2013-06-03 15:59:00,
2013-06-03 11:04:00,64.7,48.2,30.02,West,259,0.0,7.0,55,0.00,,CLR,0.00,962.00,VWS V14.01,2013-06-03 16:04:00,
2013-06-03 11:09:00,65.3,49.2,30.01,NNW,333,3.0,9.0,56,0.00,,CLR,0.00,988.00,VWS V14.01,2013-06-03 16:09:00,
2013-06-03 11:14:00,65.3,45.7,30.01,NW,311,4.0,9.0,49,0.00,,CLR,0.00,155.00,VWS V14.01,2013-06-03 16:14:00,
2013-06-03 11:19:00,65.2,47.2,30.02,NW,319,6.0,10.0,52,0.00,,CLR,0.00,937.00,VWS V14.01,2013-06-03 16:19:00,
2013-06-03 11:24:00,65.4,45.8,30.01,NW,310,1.0,10.0,49,0.00,,CLR,0.00,933.00,VWS V14.01,2013-06-03 16:24:00,
2013-06-03 11:29:00,65.9,46.2,30.01,WNW,288,6.0,6.0,49,0.00,,CLR,0.00,946.00,VWS V14.01,2013-06-03 16:29:00,
2013-06-03 11:34:00,65.9,44.0,30.01,East,101,0.0,8.0,45,0.00,,CLR,0.00,990.00,VWS V14.01,2013-06-03 16:34:00,
2013-06-03 11:39:00,66.2,46.0,30.00,SW,233,7.0,10.0,48,0.00,,CLR,0.00,165.00,VWS V14.01,2013-06-03 16:39:00,
2013-06-03 11:44:00,65.9,46.2,30.00,WNW,296,1.0,10.0,49,0.00,,CLR,0.00,1048.00,VWS V14.01,2013-06-03 16:44:00,
2013-06-03 11:49:00,65.6,44.8,30.01,WNW,298,5.0,10.0,47,0.00,,CLR,0.00,223.00,VWS V14.01,2013-06-03 16:49:00,
2013-06-03 11:54:00,65.3,46.2,30.00,WNW,295,7.0,10.0,50,0.00,,CLR,0.00,981.00,VWS V14.01,2013-06-03 16:54:00,
2013-06-03 11:59:00,65.8,46.1,30.01,NW,323,1.0,1.0,49,0.00,,CLR,0.00,972.00,VWS V14.01,2013-06-03 16:59:00,
2013-06-03 12:04:00,66.3,45.5,30.00,NNE,33,3.0,6.0,47,0.00,,FEW060,0.00,981.00,VWS V14.01,2013-06-03 17:04:00,
2013-06-03 12:09:00,66.7,44.7,30.00,West,272,5.0,11.0,45,0.00,,FEW060,0.00,988.00,VWS V14.01,2013-06-03 17:09:00,
2013-06-03 12:14:00,66.8,47.0,30.00,NNW,346,2.0,11.0,49,0.00,,FEW060,0.00,997.00,VWS V14.01,2013-06-03 17:14:00,
2013-06-03 12:19:00,66.8,45.4,30.00,WNW,296,5.0,11.0,46,0.00,,FEW060,0.00,1030.00,VWS V14.01,2013-06-03 17:19:00,
2013-06-03 12:24:00,66.8,46.5,30.00,WNW,283,6.0,11.0,48,0.00,,FEW060,0.00,1004.00,VWS V14.01,2013-06-03 17:24:00,
2013-06-03 12:29:00,66.9,44.9,30.00,North,9,0.0,1.0,45,0.00,,FEW060,0.00,1025.00,VWS V14.01,2013-06-03 17:29:00,
2013-06-03 12:34:00,67.1,45.7,30.00,WSW,256,5.0,8.0,46,0.00,,FEW060,0.00,1011.00,VWS V14.01,2013-06-03 17:34:00,
2013-06-03 12:39:00,67.4,48.1,30.00,SSW,207,6.0,9.0,50,0.00,,FEW060,0.00,953.00,VWS V14.01,2013-06-03 17:39:00,
2013-06-03 12:44:00,67.6,47.2,30.00,WSW,254,1.0,9.0,48,0.00,,FEW060,0.00,1136.00,VWS V14.01,2013-06-03 17:44:00,
2013-06-03 12:49:00,67.6,45.5,29.99,SW,231,0.0,9.0,45,0.00,,FEW060,0.00,1136.00,VWS V14.01,2013-06-03 17:49:00,
2013-06-03 12:54:00,67.9,46.4,29.99,NW,315,3.0,9.0,46,0.00,,FEW060,0.00,1041.00,VWS V14.01,2013-06-03 17:54:00,
2013-06-03 12:59:00,67.7,45.6,29.99,West,265,5.0,5.0,45,0.00,,SCT060,0.00,962.00,VWS V14.01,2013-06-03 17:59:00,
2013-06-03 13:04:00,67.8,48.0,29.99,WNW,296,0.0,5.0,49,0.00,,SCT060,0.00,679.00,VWS V14.01,2013-06-03 18:04:00,
2013-06-03 13:09:00,68.2,48.9,29.99,NW,305,4.0,9.0,50,0.00,,SCT060,0.00,1102.00,VWS V14.01,2013-06-03 18:09:00,
2013-06-03 13:14:00,68.3,47.9,29.99,WNW,302,4.0,12.0,48,0.00,,SCT060,0.00,1088.00,VWS V14.01,2013-06-03 18:14:00,
2013-06-03 13:19:00,68.1,48.2,29.99,SW,233,3.0,12.0,49,0.00,,SCT060,0.00,1044.00,VWS V14.01,2013-06-03 18:19:00,
2013-06-03 13:24:00,68.2,47.8,29.99,NW,304,5.0,12.0,48,0.00,,SCT060,0.00,1065.00,VWS V14.01,2013-06-03 18:24:00,
2013-06-03 13:29:00,68.3,49.5,29.99,SW,232,11.0,11.0,51,0.00,,SCT060,0.00,1032.00,VWS V14.01,2013-06-03 18:29:00,
2013-06-03 13:34:00,68.5,45.8,29.98,SW,219,1.0,11.0,44,0.00,,SCT060,0.00,1044.00,VWS V14.01,2013-06-03 18:34:00,
2013-06-03 13:39:00,68.5,47.5,29.98,South,190,3.0,11.0,47,0.00,,SCT060,0.00,1055.00,VWS V14.01,2013-06-03 18:39:00,
2013-06-03 13:44:00,68.8,44.2,29.98,WNW,303,0.0,11.0,41,0.00,,SCT060,0.00,925.00,VWS V14.01,2013-06-03 18:44:00,
2013-06-03 13:49:00,69.1,50.2,29.98,NW,321,0.0,11.0,51,0.00,,SCT060,0.00,830.00,VWS V14.01,2013-06-03 18:49:00,
2013-06-03 13:54:00,69.1,45.7,29.98,WSW,256,2.0,11.0,43,0.00,,SCT060,0.00,417.00,VWS V14.01,2013-06-03 18:54:00,
2013-06-03 13:59:00,68.9,44.9,29.98,NW,309,0.0,2.0,42,0.00,,CLR,0.00,997.00,VWS V14.01,2013-06-03 18:59:00,
2013-06-03 14:04:00,68.9,49.0,29.98,NW,309,1.0,7.0,49,0.00,,CLR,0.00,1055.00,VWS V14.01,2013-06-03 19:04:00,
2013-06-03 14:09:00,69.3,45.9,29.98,WSW,250,4.0,7.0,43,0.00,,CLR,0.00,1083.00,VWS V14.01,2013-06-03 19:09:00,
2013-06-03 14:14:00,69.4,44.1,29.97,NW,320,5.0,7.0,40,0.00,,CLR,0.00,1004.00,VWS V14.01,2013-06-03 19:14:00,
2013-06-03 14:19:00,69.6,46.8,29.97,West,262,0.0,8.0,44,0.00,,CLR,0.00,868.00,VWS V14.01,2013-06-03 19:19:00,
2013-06-03 14:24:00,69.4,46.0,29.97,WSW,248,3.0,8.0,43,0.00,,CLR,0.00,534.00,VWS V14.01,2013-06-03 19:24:00,
2013-06-03 14:29:00,69.1,45.7,29.97,WSW,246,3.0,5.0,43,0.00,,CLR,0.00,443.00,VWS V14.01,2013-06-03 19:29:00,
2013-06-03 14:34:00,68.8,46.6,29.97,South,188,1.0,5.0,45,0.00,,CLR,0.00,478.00,VWS V14.01,2013-06-03 19:34:00,
2013-06-03 14:39:00,68.8,48.3,29.97,SW,232,7.0,7.0,48,0.00,,CLR,0.00,506.00,VWS V14.01,2013-06-03 19:39:00,
2013-06-03 14:44:00,68.7,47.1,29.97,SW,227,2.0,7.0,46,0.00,,CLR,0.00,515.00,VWS V14.01,2013-06-03 19:44:00,
2013-06-03 14:49:00,68.7,47.1,29.97,NE,52,3.0,7.0,46,0.00,,CLR,0.00,591.00,VWS V14.01,2013-06-03 19:49:00,
2013-06-03 14:54:00,69.1,47.5,29.97,NNW,340,0.0,7.0,46,0.00,,CLR,0.00,598.00,VWS V14.01,2013-06-03 19:54:00,
2013-06-03 14:59:00,69.7,47.4,29.97,NW,322,0.0,2.0,45,0.00,,FEW065,0.00,654.00,VWS V14.01,2013-06-03 19:59:00,
2013-06-03 15:04:00,70.0,46.5,29.97,NW,321,0.0,3.0,43,0.00,,FEW065,0.00,475.00,VWS V14.01,2013-06-03 20:04:00,
2013-06-03 15:09:00,70.1,45.3,29.97,NNW,344,0.0,5.0,41,0.00,,FEW065,0.00,429.00,VWS V14.01,2013-06-03 20:09:00,
2013-06-03 15:14:00,69.8,46.3,29.97,WNW,293,0.0,6.0,43,0.00,,FEW065,0.00,359.00,VWS V14.01,2013-06-03 20:14:00,
2013-06-03 15:20:00,69.6,47.3,29.97,WNW,293,0.0,6.0,45,0.00,,FEW065,0.00,350.00,VWS V14.01,2013-06-03 20:20:00,
2013-06-03 15:25:00,69.4,46.6,29.97,NW,307,5.0,6.0,44,0.00,,FEW065,0.00,325.00,VWS V14.01,2013-06-03 20:25:00,
2013-06-03 15:30:00,68.8,46.6,29.97,WNW,296,2.0,4.0,45,0.00,,FEW065,0.00,294.00,VWS V14.01,2013-06-03 20:30:00,
2013-06-03 15:35:00,68.4,44.4,29.97,North,355,0.0,4.0,42,0.00,,FEW065,0.00,283.00,VWS V14.01,2013-06-03 20:35:00,
2013-06-03 15:40:00,68.3,44.3,29.97,WNW,297,2.0,5.0,42,0.00,,FEW065,0.00,301.00,VWS V14.01,2013-06-03 20:40:00,
2013-06-03 15:45:00,68.0,46.5,29.97,WNW,297,0.0,5.0,46,0.00,,FEW065,0.00,371.00,VWS V14.01,2013-06-03 20:45:00,
2013-06-03 15:50:00,68.1,47.7,29.97,NW,313,1.0,5.0,48,0.00,,FEW065,0.00,355.00,VWS V14.01,2013-06-03 20:50:00,
2013-06-03 15:55:00,68.1,47.7,29.96,WNW,290,2.0,6.0,48,0.00,,FEW065,0.00,373.00,VWS V14.01,2013-06-03 20:55:00,
2013-06-03 16:00:00,68.1,44.8,29.97,NW,304,1.0,5.0,43,0.00,,CLR,0.00,348.00,VWS V14.01,2013-06-03 21:00:00,
2013-06-03 16:05:00,68.1,46.6,29.96,WNW,296,0.0,5.0,46,0.00,,CLR,0.00,318.00,VWS V14.01,2013-06-03 21:05:00,
2013-06-03 16:10:00,68.2,43.6,29.96,WNW,296,0.0,5.0,41,0.00,,CLR,0.00,339.00,VWS V14.01,2013-06-03 21:10:00,
2013-06-03 16:15:00,68.3,44.3,29.95,WNW,297,0.0,5.0,42,0.00,,CLR,0.00,338.00,VWS V14.01,2013-06-03 21:15:00,
2013-06-03 16:20:00,68.6,46.4,29.95,North,5,0.0,5.0,45,0.00,,CLR,0.00,587.00,VWS V14.01,2013-06-03 21:20:00,
2013-06-03 16:25:00,69.2,46.4,29.95,NNW,344,1.0,5.0,44,0.00,,CLR,0.00,624.00,VWS V14.01,2013-06-03 21:25:00,
2013-06-03 16:30:00,69.9,48.8,29.95,West,266,0.0,0.0,47,0.00,,CLR,0.00,631.00,VWS V14.01,2013-06-03 21:30:00,
2013-06-03 16:35:00,69.8,46.9,29.95,SW,229,2.0,3.0,44,0.00,,CLR,0.00,234.00,VWS V14.01,2013-06-03 21:35:00,
2013-06-03 16:40:00,69.3,46.5,29.95,SW,229,1.0,3.0,44,0.00,,CLR,0.00,272.00,VWS V14.01,2013-06-03 21:40:00,
2013-06-03 16:45:00,69.3,47.1,29.95,West,281,3.0,5.0,45,0.00,,CLR,0.00,366.00,VWS V14.01,2013-06-03 21:45:00,
2013-06-03 16:50:00,69.4,46.6,29.95,WSW,249,6.0,7.0,44,0.00,,CLR,0.00,729.00,VWS V14.01,2013-06-03 21:50:00,
2013-06-03 16:55:00,69.7,44.3,29.95,SW,221,3.0,7.0,40,0.00,,CLR,0.00,663.00,VWS V14.01,2013-06-03 21:55:00,
2013-06-03 17:00:00,69.8,45.1,29.96,West,274,4.0,6.0,41,0.00,,CLR,0.00,304.00,VWS V14.01,2013-06-03 22:00:00,
2013-06-03 17:05:00,69.3,41.2,29.96,WNW,292,0.0,6.0,36,0.00,,CLR,0.00,341.00,VWS V14.01,2013-06-03 22:05:00,
2013-06-03 17:10:00,69.3,45.9,29.96,NW,307,1.0,6.0,43,0.00,,CLR,0.00,327.00,VWS V14.01,2013-06-03 22:10:00,
2013-06-03 17:15:00,69.5,45.4,29.96,NW,307,0.0,6.0,42,0.00,,CLR,0.00,487.00,VWS V14.01,2013-06-03 22:15:00,
2013-06-03 17:20:00,69.8,46.9,29.96,NW,307,1.0,6.0,44,0.00,,CLR,0.00,262.00,VWS V14.01,2013-06-03 22:20:00,
2013-06-03 17:25:00,69.7,43.7,29.96,NW,307,0.0,6.0,39,0.00,,CLR,0.00,221.00,VWS V14.01,2013-06-03 22:25:00,
2013-06-03 17:30:00,69.3,45.9,29.96,NW,307,0.0,0.0,43,0.00,,CLR,0.00,234.00,VWS V14.01,2013-06-03 22:30:00,
2013-06-03 17:35:00,69.0,42.4,29.96,NW,307,0.0,1.0,38,0.00,,CLR,0.00,221.00,VWS V14.01,2013-06-03 22:35:00,
2013-06-03 17:40:00,69.1,44.4,29.95,NW,307,0.0,1.0,41,0.00,,CLR,0.00,262.00,VWS V14.01,2013-06-03 22:40:00,
2013-06-03 17:45:00,69.1,43.1,29.95,West,260,0.0,2.0,39,0.00,,CLR,0.00,220.00,VWS V14.01,2013-06-03 22:45:00,
2013-06-03 17:50:00,68.9,43.6,29.95,West,260,1.0,2.0,40,0.00,,CLR,0.00,262.00,VWS V14.01,2013-06-03 22:50:00,
2013-06-03 17:55:00,68.9,44.2,29.94,West,260,0.0,2.0,41,0.00,,CLR,0.00,262.00,VWS V14.01,2013-06-03 22:55:00,
2013-06-03 18:00:00,69.0,43.7,29.94,West,260,0.0,0.0,40,0.00,,CLR,0.00,144.00,VWS V14.01,2013-06-03 23:00:00,
2013-06-03 18:05:00,68.9,49.0,29.94,West,260,0.0,0.0,49,0.00,,CLR,0.00,128.00,VWS V14.01,2013-06-03 23:05:00,
2013-06-03 18:10:00,68.7,44.1,29.94,West,260,0.0,0.0,41,0.00,,CLR,0.00,132.00,VWS V14.01,2013-06-03 23:10:00,
2013-06-03 18:15:00,68.5,44.5,29.94,West,260,0.0,0.0,42,0.00,,CLR,0.00,135.00,VWS V14.01,2013-06-03 23:15:00,
2013-06-03 18:20:00,68.2,47.8,29.95,West,260,0.0,0.0,48,0.00,,CLR,0.00,123.00,VWS V14.01,2013-06-03 23:20:00,
2013-06-03 18:25:00,68.1,48.2,29.94,West,260,0.0,0.0,49,0.00,,CLR,0.00,113.00,VWS V14.01,2013-06-03 23:25:00,
2013-06-03 18:30:00,68.0,45.3,29.94,West,260,0.0,0.0,44,0.00,,CLR,0.00,91.00,VWS V14.01,2013-06-03 23:30:00,
2013-06-03 18:35:00,67.8,45.1,29.94,West,260,0.0,0.0,44,0.00,,CLR,0.00,98.00,VWS V14.01,2013-06-03 23:35:00,
2013-06-03 18:40:00,67.6,44.3,29.94,West,260,0.0,0.0,43,0.00,,CLR,0.00,83.00,VWS V14.01,2013-06-03 23:40:00,
2013-06-03 18:45:00,67.5,45.4,29.95,West,260,0.0,0.0,45,0.00,,CLR,0.00,54.00,VWS V14.01,2013-06-03 23:45:00,
2013-06-03 18:50:00,67.2,44.0,29.95,West,260,0.0,0.0,43,0.00,,CLR,0.00,62.00,VWS V14.01,2013-06-03 23:50:00,
2013-06-03 18:55:00,67.0,43.8,29.95,West,260,0.0,0.0,43,0.00,,CLR,0.00,62.00,VWS V14.01,2013-06-03 23:55:00,
2013-06-03 19:00:00,66.8,44.2,29.95,West,260,0.0,0.0,44,0.00,,FEW120,0.00,47.00,VWS V14.01,2013-06-04 00:00:00,
2013-06-03 19:05:00,66.6,46.3,29.94,West,260,0.0,0.0,48,0.00,,FEW120,0.00,60.00,VWS V14.01,2013-06-04 00:05:00,
2013-06-03 19:10:00,66.4,44.4,29.94,West,260,0.0,0.0,45,0.00,,FEW120,0.00,44.00,VWS V14.01,2013-06-04 00:10:00,
2013-06-03 19:15:00,66.1,47.5,29.94,West,260,0.0,0.0,51,0.00,,FEW120,0.00,40.00,VWS V14.01,2013-06-04 00:15:00,
2013-06-03 19:20:00,65.8,50.2,29.94,West,260,0.0,0.0,57,0.00,,FEW120,0.00,21.00,VWS V14.01,2013-06-04 00:20:00,
2013-06-03 19:25:00,65.4,51.6,29.95,West,260,0.0,0.0,61,0.00,,FEW120,0.00,26.00,VWS V14.01,2013-06-04 00:25:00,
2013-06-03 19:30:00,64.8,50.2,29.95,West,260,0.0,0.0,59,0.00,,FEW120,0.00,11.00,VWS V14.01,2013-06-04 00:30:00,
2013-06-03 19:35:00,64.5,48.5,29.93,West,260,0.0,0.0,56,0.00,,FEW120,0.00,5.00,VWS V14.01,2013-06-04 00:35:00,
2013-06-03 19:40:00,64.2,47.2,29.94,West,260,0.0,0.0,54,0.00,,FEW120,0.00,9.00,VWS V14.01,2013-06-04 00:40:00,
2013-06-03 19:45:00,63.9,46.5,29.96,West,260,0.0,0.0,53,0.00,,FEW120,0.00,14.00,VWS V14.01,2013-06-04 00:45:00,
2013-06-03 19:50:00,63.7,46.8,29.96,West,260,0.0,0.0,54,0.00,,FEW120,0.00,12.00,VWS V14.01,2013-06-04 00:50:00,
2013-06-03 19:55:00,63.5,45.1,29.96,West,260,0.0,0.0,51,0.00,,FEW120,0.00,11.00,VWS V14.01,2013-06-04 00:55:00,
2013-06-03 20:00:00,63.4,49.3,29.95,West,260,0.0,0.0,60,0.00,,OVC110,0.00,7.00,VWS V14.01,2013-06-04 01:00:00,
2013-06-03 20:05:00,63.2,47.7,29.94,West,260,0.0,0.0,57,0.00,,OVC110,0.00,5.00,VWS V14.01,2013-06-04 01:05:00,
2013-06-03 20:10:00,62.8,49.2,29.95,West,260,0.0,0.0,61,0.00,,OVC110,0.00,0.00,VWS V14.01,2013-06-04 01:10:00,
2013-06-03 20:15:00,62.6,48.5,29.95,West,260,0.0,0.0,60,0.00,,OVC110,0.00,7.00,VWS V14.01,2013-06-04 01:15:00,
2013-06-03 20:20:00,62.3,46.9,29.96,West,260,0.0,1.0,57,0.00,,OVC110,0.00,12.00,VWS V14.01,2013-06-04 01:20:00,
2013-06-03 20:25:00,62.2,45.8,29.97,WNW,286,0.0,3.0,55,0.00,,OVC110,0.00,11.00,VWS V14.01,2013-06-04 01:25:00,
2013-06-03 20:30:00,62.1,45.8,29.97,WNW,286,0.0,0.0,55,0.00,,OVC110,0.00,0.00,VWS V14.01,2013-06-04 01:30:00,
2013-06-03 20:35:00,62.0,45.2,29.97,WNW,286,0.0,0.0,54,0.00,,OVC110,0.00,0.00,VWS V14.01,2013-06-04 01:35:00,
2013-06-03 20:41:00,61.9,46.0,29.98,WNW,286,0.0,0.0,56,0.00,,OVC110,0.00,0.00,VWS V14.01,2013-06-04 01:41:00,
2013-06-03 20:46:00,61.7,44.9,29.98,WNW,286,0.0,1.0,54,0.00,,OVC110,0.00,0.00,VWS V14.01,2013-06-04 01:46:00,
2013-06-03 20:51:00,61.6,44.3,29.98,WNW,286,0.0,1.0,53,0.00,,OVC110,0.00,0.00,VWS V14.01,2013-06-04 01:51:00,
2013-06-03 20:56:00,61.5,44.2,29.99,WNW,286,0.0,1.0,53,0.00,,OVC110,0.00,0.00,VWS V14.01,2013-06-04 01:56:00,
2013-06-03 21:01:00,61.3,44.0,29.99,WNW,286,0.0,0.0,53,0.00,,OVC100,0.00,0.00,VWS V14.01,2013-06-04 02:01:00,
2013-06-03 21:06:00,61.2,44.0,29.99,WNW,286,0.0,0.0,53,0.00,,OVC100,0.00,0.00,VWS V14.01,2013-06-04 02:06:00,
2013-06-03 21:11:00,61.1,43.4,30.00,WNW,286,0.0,0.0,52,0.00,,OVC100,0.00,0.00,VWS V14.01,2013-06-04 02:11:00,
2013-06-03 21:16:00,61.0,44.2,30.00,WNW,286,0.0,0.0,54,0.00,,OVC100,0.00,0.00,VWS V14.01,2013-06-04 02:16:00,
2013-06-03 21:21:00,60.8,44.1,30.00,WNW,286,0.0,1.0,54,0.00,,OVC100,0.00,0.00,VWS V14.01,2013-06-04 02:21:00,
2013-06-03 21:26:00,60.7,43.0,30.00,WNW,286,0.0,1.0,52,0.00,,OVC100,0.00,0.00,VWS V14.01,2013-06-04 02:26:00,
2013-06-03 21:31:00,60.6,43.4,30.01,WNW,286,0.0,0.0,53,0.00,,OVC100,0.00,0.00,VWS V14.01,2013-06-04 02:31:00,
2013-06-03 21:36:00,60.5,43.8,30.01,WNW,286,0.0,1.0,54,0.00,,OVC100,0.00,0.00,VWS V14.01,2013-06-04 02:36:00,
2013-06-03 21:41:00,60.4,44.7,30.01,WNW,286,0.0,1.0,56,0.00,,OVC100,0.00,0.00,VWS V14.01,2013-06-04 02:41:00,
2013-06-03 21:46:00,60.2,44.5,30.02,WNW,286,0.0,1.0,56,0.00,,OVC100,0.00,0.00,VWS V14.01,2013-06-04 02:46:00,
2013-06-03 21:52:00,60.1,42.9,30.02,NW,309,0.0,1.0,53,0.00,,OVC100,0.00,0.00,VWS V14.01,2013-06-04 02:52:00,
2013-06-03 21:57:00,60.0,42.3,30.02,NW,309,0.0,1.0,52,0.00,,OVC100,0.00,0.00,VWS V14.01,2013-06-04 02:57:00,
2013-06-03 22:02:00,60.0,43.8,30.03,NW,309,0.0,1.0,55,0.00,,BKN110,0.00,0.00,VWS V14.01,2013-06-04 03:02:00,
2013-06-03 22:07:00,59.9,41.8,30.03,NW,309,0.0,1.0,51,0.00,,BKN110,0.00,0.00,VWS V14.01,2013-06-04 03:07:00,
2013-06-03 22:12:00,59.9,42.2,30.03,NW,309,0.0,1.0,52,0.00,,BKN110,0.00,0.00,VWS V14.01,2013-06-04 03:12:00,
2013-06-03 22:17:00,59.8,41.1,30.03,SE,131,0.0,1.0,50,0.00,,BKN110,0.00,0.00,VWS V14.01,2013-06-04 03:17:00,
2013-06-03 22:22:00,59.7,40.5,30.03,SE,130,0.0,1.0,49,0.00,,BKN110,0.00,0.00,VWS V14.01,2013-06-04 03:22:00,
2013-06-03 22:27:00,59.7,42.1,30.03,WSW,245,0.0,1.0,52,0.00,,BKN110,0.00,0.00,VWS V14.01,2013-06-04 03:27:00,
2013-06-03 22:32:00,59.6,43.4,30.03,WSW,245,0.0,0.0,55,0.00,,BKN110,0.00,0.00,VWS V14.01,2013-06-04 03:32:00,
2013-06-03 22:37:00,59.4,42.3,30.03,WSW,245,0.0,0.0,53,0.00,,BKN110,0.00,0.00,VWS V14.01,2013-06-04 03:37:00,
2013-06-03 22:42:00,59.3,42.2,30.03,WSW,245,0.0,1.0,53,0.00,,BKN110,0.00,0.00,VWS V14.01,2013-06-04 03:42:00,
2013-06-03 22:47:00,59.1,41.5,30.03,WSW,245,0.0,1.0,52,0.00,,BKN110,0.00,0.00,VWS V14.01,2013-06-04 03:47:00,
2013-06-03 22:52:00,59.1,42.0,30.03,WSW,245,0.0,1.0,53,0.00,,BKN110,0.00,0.00,VWS V14.01,2013-06-04 03:52:00,
2013-06-03 22:57:00,59.0,43.3,30.03,WSW,245,0.0,1.0,56,0.00,,BKN110,0.00,0.00,VWS V14.01,2013-06-04 03:57:00,
2013-06-03 23:01:00,58.9,42.8,30.03,SSE,150,0.0,0.0,55,0.00,,BKN120,0.00,0.00,VWS V14.01,2013-06-04 04:01:00,
2013-06-03 23:02:00,58.9,42.3,30.03,SSE,150,0.0,0.0,54,0.00,,BKN120,0.00,0.00,VWS V14.01,2013-06-04 04:02:00,
2013-06-03 23:07:00,58.8,42.2,30.03,SSE,150,0.0,0.0,54,0.00,,BKN120,0.00,0.00,VWS V14.01,2013-06-04 04:07:00,
2013-06-03 23:12:00,58.7,43.1,30.04,SSE,150,0.0,0.0,56,0.00,,BKN120,0.00,0.00,VWS V14.01,2013-06-04 04:12:00,
2013-06-03 23:17:00,58.6,43.9,30.04,SSE,150,0.0,0.0,58,0.00,,BKN120,0.00,0.00,VWS V14.01,2013-06-04 04:17:00,
2013-06-03 23:22:00,58.5,44.2,30.04,SSE,155,0.0,2.0,59,0.00,,BKN120,0.00,0.00,VWS V14.01,2013-06-04 04:22:00,
2013-06-03 23:27:00,58.3,45.3,30.04,SSE,155,0.0,2.0,62,0.00,,BKN120,0.00,0.00,VWS V14.01,2013-06-04 04:27:00,
2013-06-03 23:32:00,58.2,44.8,30.04,SSE,155,0.0,0.0,61,0.00,,BKN120,0.00,0.00,VWS V14.01,2013-06-04 04:32:00,
2013-06-03 23:37:00,58.0,44.6,30.03,SSE,163,0.0,1.0,61,0.00,,BKN120,0.00,0.00,VWS V14.01,2013-06-04 04:37:00,
2013-06-03 23:42:00,57.9,45.0,30.04,SSE,163,0.0,1.0,62,0.00,,BKN120,0.00,0.00,VWS V14.01,2013-06-04 04:42:00,
2013-06-03 23:47:00,57.8,45.3,30.04,SSE,163,0.0,1.0,63,0.00,,BKN120,0.00,0.00,VWS V14.01,2013-06-04 04:47:00,
2013-06-03 23:52:00,57.7,44.8,30.03,SSE,163,0.0,1.0,62,0.00,,BKN120,0.00,0.00,VWS V14.01,2013-06-04 04:52:00,
2013-06-03 23:57:00,57.6,43.8,30.03,SSE,163,0.0,1.0,60,0.00,,BKN120,0.00,0.00,VWS V14.01,2013-06-04 04:57:00,